AUA15 LOWW-ZSPD
Flight info
| Callsign | AUA15 |
|---|---|
| Flight time | N/A |
| Altitude | 35000 |
| Route | ADAMA DCT VEDER DCT ALAMU DCT EPARI DCT DINRO DCT UDROS UM859 RUVOM/N0476F370 UM859 KARDE UN644 ROLIN N644 ODILI DCT BARAD M747 SUBUT T916 LEYLA N161 GASBI/K0885F370 N161 AMASO/K0889F390 N161 SARIN/K0878S1190 A368 FKG W188 LIKMI W270 DKO/K0891S1250 W64 NUTLO B208 CGO W129 KAMDA W128 FYG B208 HFE R343 SASAN SAS82A |
| Aircraft | B772/H-SDE2E3FGHIJ5LORVWXY/LB1D1 |
Departure
| Time | 2026-04-26 07:31 |
|---|---|
| Airport | Vienna International Airport (LOWW) |
Arrival
| Time | N/A |
|---|---|
| Airport | Shanghai Pudong International Airport (ZSPD) |
| Time | Latitude | Longitude | Altitude | Speed | Heading |
|---|---|---|---|---|---|
| 2026-04-26 07:07 | 48.11855 | 16.55993 | 613 ft | 0 kts | 124° |
| 2026-04-26 07:20 | 48.11861 | 16.55979 | 631 ft | 4 kts | 127° |
| 2026-04-26 07:20 | 48.11879 | 16.55949 | 628 ft | 4 kts | 139° |
| 2026-04-26 07:21 | 48.11901 | 16.55926 | 628 ft | 4 kts | 160° |
| 2026-04-26 07:21 | 48.11924 | 16.55922 | 628 ft | 2 kts | 205° |
| 2026-04-26 07:21 | 48.11926 | 16.55923 | 628 ft | 0 kts | 206° |
| 2026-04-26 07:25 | 48.11903 | 16.55907 | 615 ft | 13 kts | 206° |
| 2026-04-26 07:25 | 48.11784 | 16.55821 | 625 ft | 20 kts | 206° |
| 2026-04-26 07:26 | 48.11693 | 16.55802 | 627 ft | 12 kts | 129° |
| 2026-04-26 07:26 | 48.11652 | 16.55917 | 623 ft | 15 kts | 115° |
| 2026-04-26 07:26 | 48.11591 | 16.56103 | 620 ft | 25 kts | 116° |
| 2026-04-26 07:26 | 48.11510 | 16.56349 | 618 ft | 27 kts | 116° |
| 2026-04-26 07:27 | 48.11431 | 16.56594 | 625 ft | 27 kts | 115° |
| 2026-04-26 07:27 | 48.11350 | 16.56843 | 625 ft | 27 kts | 115° |
| 2026-04-26 07:27 | 48.11270 | 16.57091 | 627 ft | 27 kts | 116° |
| 2026-04-26 07:27 | 48.11196 | 16.57310 | 627 ft | 22 kts | 115° |
| 2026-04-26 07:28 | 48.11130 | 16.57518 | 624 ft | 22 kts | 115° |
| 2026-04-26 07:28 | 48.11038 | 16.57638 | 619 ft | 19 kts | 193° |
| 2026-04-26 07:28 | 48.10933 | 16.57564 | 627 ft | 13 kts | 216° |
| 2026-04-26 07:28 | 48.10934 | 16.57476 | 620 ft | 9 kts | 294° |
| 2026-04-26 07:29 | 48.10940 | 16.57458 | 616 ft | 0 kts | 295° |
| 2026-04-26 07:31 | 48.10980 | 16.57334 | 600 ft | 41 kts | 296° |
| 2026-04-26 07:31 | 48.11233 | 16.56559 | 630 ft | 123 kts | 296° |
| 2026-04-26 07:31 | 48.11683 | 16.55135 | 814 ft | 169 kts | 301° |
| 2026-04-26 07:31 | 48.12189 | 16.53519 | 1748 ft | 174 kts | 296° |
| 2026-04-26 07:32 | 48.12414 | 16.51655 | 2663 ft | 188 kts | 279° |
| 2026-04-26 07:32 | 48.12081 | 16.49647 | 3063 ft | 217 kts | 246° |
| 2026-04-26 07:32 | 48.10898 | 16.48120 | 3470 ft | 239 kts | 206° |
| 2026-04-26 07:32 | 48.09287 | 16.47423 | 3933 ft | 244 kts | 202° |
| 2026-04-26 07:33 | 48.07608 | 16.46718 | 4248 ft | 260 kts | 191° |
| 2026-04-26 07:33 | 48.05724 | 16.47042 | 4437 ft | 284 kts | 165° |
| 2026-04-26 07:33 | 48.03798 | 16.47801 | 4826 ft | 295 kts | 172° |
| 2026-04-26 07:33 | 48.01758 | 16.48310 | 5451 ft | 301 kts | 176° |
| 2026-04-26 07:34 | 47.99675 | 16.48724 | 6188 ft | 302 kts | 178° |
| 2026-04-26 07:34 | 47.97618 | 16.49388 | 6788 ft | 311 kts | 159° |
| 2026-04-26 07:34 | 47.95881 | 16.51372 | 7285 ft | 321 kts | 125° |
| 2026-04-26 07:34 | 47.94956 | 16.54351 | 7918 ft | 316 kts | 94° |